sensor_id;sensor_type;location;lat;lon;timestamp;P1;durP1;ratioP1;P2;durP2;ratioP2
46348;SDS011;32057;47.830;19.046;2023-04-25T00:01:23;8.57;;;1.75;;
46348;SDS011;32057;47.830;19.046;2023-04-25T00:03:49;0.82;;;0.82;;
46348;SDS011;32057;47.830;19.046;2023-04-25T00:06:15;0.95;;;0.95;;
46348;SDS011;32057;47.830;19.046;2023-04-25T00:08:40;0.90;;;0.90;;
46348;SDS011;32057;47.830;19.046;2023-04-25T00:11:06;0.70;;;0.70;;
46348;SDS011;32057;47.830;19.046;2023-04-25T00:13:31;1.10;;;0.98;;
46348;SDS011;32057;47.830;19.046;2023-04-25T00:15:57;0.70;;;0.70;;
46348;SDS011;32057;47.830;19.046;2023-04-25T00:18:23;0.70;;;0.70;;
46348;SDS011;32057;47.830;19.046;2023-04-25T00:20:49;0.82;;;0.82;;
46348;SDS011;32057;47.830;19.046;2023-04-25T00:23:15;0.90;;;0.90;;
46348;SDS011;32057;47.830;19.046;2023-04-25T00:25:47;1.15;;;1.02;;
46348;SDS011;32057;47.830;19.046;2023-04-25T00:28:14;1.25;;;1.15;;
46348;SDS011;32057;47.830;19.046;2023-04-25T00:30:40;0.40;;;0.40;;
46348;SDS011;32057;47.830;19.046;2023-04-25T00:33:06;0.80;;;0.65;;
46348;SDS011;32057;47.830;19.046;2023-04-25T00:35:32;0.30;;;0.30;;
46348;SDS011;32057;47.830;19.046;2023-04-25T00:37:57;0.88;;;0.88;;
46348;SDS011;32057;47.830;19.046;2023-04-25T00:40:23;0.70;;;0.70;;
46348;SDS011;32057;47.830;19.046;2023-04-25T00:42:49;0.30;;;0.30;;
46348;SDS011;32057;47.830;19.046;2023-04-25T00:45:16;0.57;;;0.57;;
46348;SDS011;32057;47.830;19.046;2023-04-25T00:47:42;0.68;;;0.68;;
46348;SDS011;32057;47.830;19.046;2023-04-25T00:50:08;0.60;;;0.60;;
46348;SDS011;32057;47.830;19.046;2023-04-25T00:52:34;0.75;;;0.75;;
46348;SDS011;32057;47.830;19.046;2023-04-25T00:55:02;0.60;;;0.60;;
46348;SDS011;32057;47.830;19.046;2023-04-25T00:57:30;0.70;;;0.70;;
46348;SDS011;32057;47.830;19.046;2023-04-25T00:59:55;1.00;;;0.90;;
46348;SDS011;32057;47.830;19.046;2023-04-25T01:02:21;0.40;;;0.40;;
46348;SDS011;32057;47.830;19.046;2023-04-25T01:04:47;0.60;;;0.60;;
46348;SDS011;32057;47.830;19.046;2023-04-25T01:07:13;1.35;;;1.27;;
46348;SDS011;32057;47.830;19.046;2023-04-25T01:09:38;4.90;;;1.10;;
46348;SDS011;32057;47.830;19.046;2023-04-25T01:12:04;0.85;;;0.85;;
46348;SDS011;32057;47.830;19.046;2023-04-25T01:14:30;0.82;;;0.82;;
46348;SDS011;32057;47.830;19.046;2023-04-25T01:16:56;1.80;;;0.80;;
46348;SDS011;32057;47.830;19.046;2023-04-25T01:19:23;0.60;;;0.60;;
46348;SDS011;32057;47.830;19.046;2023-04-25T01:21:49;1.30;;;0.77;;
46348;SDS011;32057;47.830;19.046;2023-04-25T01:24:15;1.40;;;0.95;;
46348;SDS011;32057;47.830;19.046;2023-04-25T01:26:41;0.50;;;0.50;;
46348;SDS011;32057;47.830;19.046;2023-04-25T01:31:39;0.75;;;0.75;;
46348;SDS011;32057;47.830;19.046;2023-04-25T01:34:05;0.88;;;0.88;;
46348;SDS011;32057;47.830;19.046;2023-04-25T01:36:31;1.65;;;0.85;;
46348;SDS011;32057;47.830;19.046;2023-04-25T01:38:57;0.80;;;0.80;;
46348;SDS011;32057;47.830;19.046;2023-04-25T01:41:22;1.02;;;0.93;;
46348;SDS011;32057;47.830;19.046;2023-04-25T01:43:48;1.38;;;0.93;;
46348;SDS011;32057;47.830;19.046;2023-04-25T01:46:14;0.88;;;0.88;;
46348;SDS011;32057;47.830;19.046;2023-04-25T01:48:39;1.08;;;0.98;;
46348;SDS011;32057;47.830;19.046;2023-04-25T01:51:05;1.02;;;0.95;;
46348;SDS011;32057;47.830;19.046;2023-04-25T01:53:31;0.73;;;0.73;;
46348;SDS011;32057;47.830;19.046;2023-04-25T01:55:56;0.63;;;0.63;;
46348;SDS011;32057;47.830;19.046;2023-04-25T01:58:22;0.93;;;0.93;;
46348;SDS011;32057;47.830;19.046;2023-04-25T02:00:47;0.65;;;0.65;;
46348;SDS011;32057;47.830;19.046;2023-04-25T02:03:13;0.80;;;0.80;;
46348;SDS011;32057;47.830;19.046;2023-04-25T02:05:38;0.70;;;0.70;;
46348;SDS011;32057;47.830;19.046;2023-04-25T02:08:05;0.90;;;0.90;;
46348;SDS011;32057;47.830;19.046;2023-04-25T02:10:32;1.15;;;1.05;;
46348;SDS011;32057;47.830;19.046;2023-04-25T02:12:58;0.90;;;0.90;;
46348;SDS011;32057;47.830;19.046;2023-04-25T02:15:24;0.82;;;0.77;;
46348;SDS011;32057;47.830;19.046;2023-04-25T02:17:49;1.52;;;1.42;;
46348;SDS011;32057;47.830;19.046;2023-04-25T02:20:17;0.60;;;0.60;;
46348;SDS011;32057;47.830;19.046;2023-04-25T02:22:45;1.10;;;1.05;;
46348;SDS011;32057;47.830;19.046;2023-04-25T02:25:10;0.73;;;0.73;;
46348;SDS011;32057;47.830;19.046;2023-04-25T02:27:36;1.20;;;0.80;;
46348;SDS011;32057;47.830;19.046;2023-04-25T02:30:02;0.60;;;0.60;;
46348;SDS011;32057;47.830;19.046;2023-04-25T02:32:28;1.13;;;1.02;;
46348;SDS011;32057;47.830;19.046;2023-04-25T02:34:53;0.52;;;0.52;;
46348;SDS011;32057;47.830;19.046;2023-04-25T02:37:19;0.68;;;0.68;;
46348;SDS011;32057;47.830;19.046;2023-04-25T02:39:44;0.85;;;0.65;;
46348;SDS011;32057;47.830;19.046;2023-04-25T02:42:10;1.02;;;0.70;;
46348;SDS011;32057;47.830;19.046;2023-04-25T02:44:35;0.60;;;0.60;;
46348;SDS011;32057;47.830;19.046;2023-04-25T02:47:01;1.60;;;0.80;;
46348;SDS011;32057;47.830;19.046;2023-04-25T02:49:26;1.00;;;0.90;;
46348;SDS011;32057;47.830;19.046;2023-04-25T02:51:52;1.05;;;1.00;;
46348;SDS011;32057;47.830;19.046;2023-04-25T02:54:17;2.00;;;0.70;;
46348;SDS011;32057;47.830;19.046;2023-04-25T02:56:42;0.60;;;0.60;;
46348;SDS011;32057;47.830;19.046;2023-04-25T02:59:08;0.70;;;0.70;;
46348;SDS011;32057;47.830;19.046;2023-04-25T03:01:33;0.80;;;0.80;;
46348;SDS011;32057;47.830;19.046;2023-04-25T03:03:59;0.80;;;0.80;;
46348;SDS011;32057;47.830;19.046;2023-04-25T03:06:24;0.60;;;0.60;;
46348;SDS011;32057;47.830;19.046;2023-04-25T03:08:50;1.05;;;0.95;;
46348;SDS011;32057;47.830;19.046;2023-04-25T03:11:15;2.05;;;0.60;;
46348;SDS011;32057;47.830;19.046;2023-04-25T03:13:40;8.68;;;0.80;;
46348;SDS011;32057;47.830;19.046;2023-04-25T03:16:06;1.15;;;0.80;;
46348;SDS011;32057;47.830;19.046;2023-04-25T03:18:31;0.68;;;0.68;;
46348;SDS011;32057;47.830;19.046;2023-04-25T03:20:59;0.68;;;0.68;;
46348;SDS011;32057;47.830;19.046;2023-04-25T03:23:25;0.88;;;0.88;;
46348;SDS011;32057;47.830;19.046;2023-04-25T03:25:53;0.70;;;0.70;;
46348;SDS011;32057;47.830;19.046;2023-04-25T03:28:19;0.63;;;0.63;;
46348;SDS011;32057;47.830;19.046;2023-04-25T03:30:45;0.93;;;0.75;;
46348;SDS011;32057;47.830;19.046;2023-04-25T03:33:10;3.70;;;0.88;;
46348;SDS011;32057;47.830;19.046;2023-04-25T03:35:36;0.98;;;0.82;;
46348;SDS011;32057;47.830;19.046;2023-04-25T03:38:01;0.50;;;0.50;;
46348;SDS011;32057;47.830;19.046;2023-04-25T03:40:27;0.75;;;0.75;;
46348;SDS011;32057;47.830;19.046;2023-04-25T03:42:52;0.43;;;0.43;;
46348;SDS011;32057;47.830;19.046;2023-04-25T03:45:17;0.55;;;0.55;;
46348;SDS011;32057;47.830;19.046;2023-04-25T03:47:43;0.70;;;0.55;;
46348;SDS011;32057;47.830;19.046;2023-04-25T03:50:08;1.00;;;1.00;;
46348;SDS011;32057;47.830;19.046;2023-04-25T03:52:35;0.57;;;0.57;;
46348;SDS011;32057;47.830;19.046;2023-04-25T03:55:00;0.60;;;0.60;;
46348;SDS011;32057;47.830;19.046;2023-04-25T03:57:26;0.75;;;0.75;;
46348;SDS011;32057;47.830;19.046;2023-04-25T03:59:51;1.98;;;1.25;;
46348;SDS011;32057;47.830;19.046;2023-04-25T04:02:17;1.48;;;1.08;;
46348;SDS011;32057;47.830;19.046;2023-04-25T04:04:43;3.15;;;1.23;;
46348;SDS011;32057;47.830;19.046;2023-04-25T04:07:09;1.02;;;1.02;;
46348;SDS011;32057;47.830;19.046;2023-04-25T04:09:35;1.02;;;0.93;;
46348;SDS011;32057;47.830;19.046;2023-04-25T04:12:00;1.60;;;1.50;;
46348;SDS011;32057;47.830;19.046;2023-04-25T04:14:26;1.20;;;1.10;;
46348;SDS011;32057;47.830;19.046;2023-04-25T04:16:52;1.20;;;1.10;;
46348;SDS011;32057;47.830;19.046;2023-04-25T04:19:17;1.15;;;1.05;;
46348;SDS011;32057;47.830;19.046;2023-04-25T04:21:43;1.00;;;1.00;;
46348;SDS011;32057;47.830;19.046;2023-04-25T04:24:08;1.42;;;1.33;;
46348;SDS011;32057;47.830;19.046;2023-04-25T04:26:35;2.00;;;1.40;;
46348;SDS011;32057;47.830;19.046;2023-04-25T04:29:02;1.55;;;1.35;;
46348;SDS011;32057;47.830;19.046;2023-04-25T04:31:27;1.00;;;1.00;;
46348;SDS011;32057;47.830;19.046;2023-04-25T04:33:55;3.78;;;2.60;;
46348;SDS011;32057;47.830;19.046;2023-04-25T04:36:20;0.90;;;0.85;;
46348;SDS011;32057;47.830;19.046;2023-04-25T04:38:47;1.65;;;1.52;;
46348;SDS011;32057;47.830;19.046;2023-04-25T04:41:12;0.90;;;0.90;;
46348;SDS011;32057;47.830;19.046;2023-04-25T04:43:38;1.23;;;1.17;;
46348;SDS011;32057;47.830;19.046;2023-04-25T04:46:04;1.30;;;1.20;;
46348;SDS011;32057;47.830;19.046;2023-04-25T04:48:33;1.15;;;1.13;;
46348;SDS011;32057;47.830;19.046;2023-04-25T04:50:59;1.60;;;1.27;;
46348;SDS011;32057;47.830;19.046;2023-04-25T04:53:25;1.88;;;1.77;;
46348;SDS011;32057;47.830;19.046;2023-04-25T04:55:50;1.05;;;0.95;;
46348;SDS011;32057;47.830;19.046;2023-04-25T04:58:18;1.30;;;1.20;;
46348;SDS011;32057;47.830;19.046;2023-04-25T05:00:44;1.13;;;1.08;;
46348;SDS011;32057;47.830;19.046;2023-04-25T05:03:09;1.10;;;1.10;;
46348;SDS011;32057;47.830;19.046;2023-04-25T05:05:36;1.85;;;1.67;;
46348;SDS011;32057;47.830;19.046;2023-04-25T05:08:07;1.30;;;1.20;;
46348;SDS011;32057;47.830;19.046;2023-04-25T05:10:33;0.90;;;0.90;;
46348;SDS011;32057;47.830;19.046;2023-04-25T05:12:58;1.23;;;1.05;;
46348;SDS011;32057;47.830;19.046;2023-04-25T05:15:24;1.40;;;1.30;;
46348;SDS011;32057;47.830;19.046;2023-04-25T05:17:49;1.20;;;1.10;;
46348;SDS011;32057;47.830;19.046;2023-04-25T05:20:15;0.90;;;0.90;;
46348;SDS011;32057;47.830;19.046;2023-04-25T05:22:41;3.10;;;1.85;;
46348;SDS011;32057;47.830;19.046;2023-04-25T05:25:07;1.50;;;1.40;;
46348;SDS011;32057;47.830;19.046;2023-04-25T05:27:33;1.88;;;1.77;;
46348;SDS011;32057;47.830;19.046;2023-04-25T05:29:58;0.93;;;0.93;;
46348;SDS011;32057;47.830;19.046;2023-04-25T05:32:24;1.60;;;1.50;;
46348;SDS011;32057;47.830;19.046;2023-04-25T05:34:50;0.70;;;0.70;;
46348;SDS011;32057;47.830;19.046;2023-04-25T05:37:16;1.27;;;1.17;;
46348;SDS011;32057;47.830;19.046;2023-04-25T05:39:42;3.25;;;1.80;;
46348;SDS011;32057;47.830;19.046;2023-04-25T05:42:07;2.65;;;0.70;;
46348;SDS011;32057;47.830;19.046;2023-04-25T05:44:32;1.20;;;1.20;;
46348;SDS011;32057;47.830;19.046;2023-04-25T05:46:58;1.35;;;1.10;;
46348;SDS011;32057;47.830;19.046;2023-04-25T05:49:23;1.15;;;1.05;;
46348;SDS011;32057;47.830;19.046;2023-04-25T05:51:49;0.55;;;0.55;;
46348;SDS011;32057;47.830;19.046;2023-04-25T05:54:14;0.93;;;0.93;;
46348;SDS011;32057;47.830;19.046;2023-04-25T05:56:40;0.82;;;0.82;;
46348;SDS011;32057;47.830;19.046;2023-04-25T05:59:05;1.02;;;1.02;;
46348;SDS011;32057;47.830;19.046;2023-04-25T06:01:31;1.55;;;1.45;;
46348;SDS011;32057;47.830;19.046;2023-04-25T06:03:56;0.80;;;0.80;;
46348;SDS011;32057;47.830;19.046;2023-04-25T06:06:22;0.82;;;0.82;;
46348;SDS011;32057;47.830;19.046;2023-04-25T06:08:47;1.20;;;1.02;;
46348;SDS011;32057;47.830;19.046;2023-04-25T06:11:13;1.40;;;1.02;;
46348;SDS011;32057;47.830;19.046;2023-04-25T06:13:38;1.02;;;0.90;;
46348;SDS011;32057;47.830;19.046;2023-04-25T06:16:04;1.58;;;1.42;;
46348;SDS011;32057;47.830;19.046;2023-04-25T06:18:29;0.95;;;0.95;;
46348;SDS011;32057;47.830;19.046;2023-04-25T06:20:55;0.65;;;0.65;;
46348;SDS011;32057;47.830;19.046;2023-04-25T06:23:20;3.08;;;1.02;;
46348;SDS011;32057;47.830;19.046;2023-04-25T06:25:46;1.17;;;1.13;;
46348;SDS011;32057;47.830;19.046;2023-04-25T06:28:11;1.77;;;1.02;;
46348;SDS011;32057;47.830;19.046;2023-04-25T06:30:37;1.27;;;0.85;;
46348;SDS011;32057;47.830;19.046;2023-04-25T06:33:02;1.23;;;1.10;;
46348;SDS011;32057;47.830;19.046;2023-04-25T06:35:27;0.88;;;0.88;;
46348;SDS011;32057;47.830;19.046;2023-04-25T06:37:53;1.67;;;1.58;;
46348;SDS011;32057;47.830;19.046;2023-04-25T06:40:18;1.02;;;1.02;;
46348;SDS011;32057;47.830;19.046;2023-04-25T06:42:44;1.25;;;1.15;;
46348;SDS011;32057;47.830;19.046;2023-04-25T06:45:09;0.80;;;0.80;;
46348;SDS011;32057;47.830;19.046;2023-04-25T06:47:35;0.70;;;0.70;;
46348;SDS011;32057;47.830;19.046;2023-04-25T06:50:01;2.10;;;1.20;;
46348;SDS011;32057;47.830;19.046;2023-04-25T06:52:26;1.60;;;1.00;;
46348;SDS011;32057;47.830;19.046;2023-04-25T06:54:52;1.63;;;1.05;;
46348;SDS011;32057;47.830;19.046;2023-04-25T06:57:17;1.20;;;1.10;;
46348;SDS011;32057;47.830;19.046;2023-04-25T06:59:42;1.92;;;0.90;;
46348;SDS011;32057;47.830;19.046;2023-04-25T07:02:08;0.80;;;0.80;;
46348;SDS011;32057;47.830;19.046;2023-04-25T07:04:33;1.00;;;0.90;;
46348;SDS011;32057;47.830;19.046;2023-04-25T07:06:59;0.68;;;0.68;;
46348;SDS011;32057;47.830;19.046;2023-04-25T07:09:27;1.00;;;1.00;;
46348;SDS011;32057;47.830;19.046;2023-04-25T07:11:53;0.80;;;0.80;;
46348;SDS011;32057;47.830;19.046;2023-04-25T07:14:18;1.02;;;0.98;;
46348;SDS011;32057;47.830;19.046;2023-04-25T07:16:44;1.25;;;1.10;;
46348;SDS011;32057;47.830;19.046;2023-04-25T07:19:09;1.17;;;0.90;;
46348;SDS011;32057;47.830;19.046;2023-04-25T07:21:35;1.05;;;1.00;;
46348;SDS011;32057;47.830;19.046;2023-04-25T07:24:01;1.40;;;1.30;;
46348;SDS011;32057;47.830;19.046;2023-04-25T07:26:27;0.98;;;0.98;;
46348;SDS011;32057;47.830;19.046;2023-04-25T07:28:52;1.08;;;1.00;;
46348;SDS011;32057;47.830;19.046;2023-04-25T07:31:18;0.80;;;0.80;;
46348;SDS011;32057;47.830;19.046;2023-04-25T07:33:43;1.00;;;0.90;;
46348;SDS011;32057;47.830;19.046;2023-04-25T07:36:10;1.05;;;0.95;;
46348;SDS011;32057;47.830;19.046;2023-04-25T07:38:36;1.35;;;1.13;;
46348;SDS011;32057;47.830;19.046;2023-04-25T07:41:01;0.88;;;0.88;;
46348;SDS011;32057;47.830;19.046;2023-04-25T07:43:27;1.25;;;1.15;;
46348;SDS011;32057;47.830;19.046;2023-04-25T07:45:52;1.23;;;1.13;;
46348;SDS011;32057;47.830;19.046;2023-04-25T07:48:17;0.95;;;0.95;;
46348;SDS011;32057;47.830;19.046;2023-04-25T07:50:43;0.85;;;0.85;;
46348;SDS011;32057;47.830;19.046;2023-04-25T07:53:10;1.42;;;0.98;;
46348;SDS011;32057;47.830;19.046;2023-04-25T07:55:35;1.58;;;1.48;;
46348;SDS011;32057;47.830;19.046;2023-04-25T07:58:01;1.40;;;1.30;;
46348;SDS011;32057;47.830;19.046;2023-04-25T08:00:28;2.88;;;1.20;;
46348;SDS011;32057;47.830;19.046;2023-04-25T08:02:54;1.50;;;1.30;;
46348;SDS011;32057;47.830;19.046;2023-04-25T08:05:19;1.50;;;1.05;;
46348;SDS011;32057;47.830;19.046;2023-04-25T08:07:45;1.75;;;1.65;;
46348;SDS011;32057;47.830;19.046;2023-04-25T08:10:10;0.98;;;0.98;;
46348;SDS011;32057;47.830;19.046;2023-04-25T08:12:36;1.70;;;1.60;;
46348;SDS011;32057;47.830;19.046;2023-04-25T08:15:01;3.00;;;1.70;;
46348;SDS011;32057;47.830;19.046;2023-04-25T08:17:27;2.20;;;1.48;;
46348;SDS011;32057;47.830;19.046;2023-04-25T08:19:52;2.35;;;1.65;;
46348;SDS011;32057;47.830;19.046;2023-04-25T08:22:18;1.65;;;1.38;;
46348;SDS011;32057;47.830;19.046;2023-04-25T08:24:43;3.42;;;1.27;;
46348;SDS011;32057;47.830;19.046;2023-04-25T08:27:09;0.98;;;0.98;;
46348;SDS011;32057;47.830;19.046;2023-04-25T08:29:34;0.90;;;0.85;;
46348;SDS011;32057;47.830;19.046;2023-04-25T08:32:00;0.77;;;0.73;;
46348;SDS011;32057;47.830;19.046;2023-04-25T08:34:25;1.17;;;1.08;;
46348;SDS011;32057;47.830;19.046;2023-04-25T08:36:51;1.17;;;1.17;;
46348;SDS011;32057;47.830;19.046;2023-04-25T08:39:17;0.73;;;0.73;;
46348;SDS011;32057;47.830;19.046;2023-04-25T08:41:42;2.88;;;0.63;;
46348;SDS011;32057;47.830;19.046;2023-04-25T08:44:10;0.77;;;0.77;;
46348;SDS011;32057;47.830;19.046;2023-04-25T08:46:37;0.98;;;0.95;;
46348;SDS011;32057;47.830;19.046;2023-04-25T08:49:05;0.60;;;0.60;;
46348;SDS011;32057;47.830;19.046;2023-04-25T08:51:32;0.60;;;0.60;;
46348;SDS011;32057;47.830;19.046;2023-04-25T08:54:11;0.68;;;0.68;;
46348;SDS011;32057;47.830;19.046;2023-04-25T08:56:41;0.32;;;0.32;;
46348;SDS011;32057;47.830;19.046;2023-04-25T08:59:09;0.20;;;0.20;;
46348;SDS011;32057;47.830;19.046;2023-04-25T09:01:36;7.53;;;0.70;;
46348;SDS011;32057;47.830;19.046;2023-04-25T09:04:01;0.47;;;0.47;;
46348;SDS011;32057;47.830;19.046;2023-04-25T09:06:30;0.30;;;0.30;;
46348;SDS011;32057;47.830;19.046;2023-04-25T09:09:06;0.57;;;0.32;;
46348;SDS011;32057;47.830;19.046;2023-04-25T09:11:33;0.32;;;0.32;;
46348;SDS011;32057;47.830;19.046;2023-04-25T09:19:38;0.40;;;0.40;;
46348;SDS011;32057;47.830;19.046;2023-04-25T09:22:05;0.50;;;0.50;;
46348;SDS011;32057;47.830;19.046;2023-04-25T09:24:41;0.40;;;0.40;;
46348;SDS011;32057;47.830;19.046;2023-04-25T09:27:09;0.32;;;0.32;;
46348;SDS011;32057;47.830;19.046;2023-04-25T09:29:40;0.40;;;0.40;;
46348;SDS011;32057;47.830;19.046;2023-04-25T09:34:44;0.35;;;0.35;;
46348;SDS011;32057;47.830;19.046;2023-04-25T09:37:16;0.20;;;0.20;;
46348;SDS011;32057;47.830;19.046;2023-04-25T09:39:45;0.30;;;0.30;;
46348;SDS011;32057;47.830;19.046;2023-04-25T09:42:13;2.17;;;1.65;;
46348;SDS011;32057;47.830;19.046;2023-04-25T09:44:44;0.40;;;0.40;;
46348;SDS011;32057;47.830;19.046;2023-04-25T09:47:11;0.20;;;0.20;;
46348;SDS011;32057;47.830;19.046;2023-04-25T09:49:39;0.30;;;0.30;;
46348;SDS011;32057;47.830;19.046;2023-04-25T09:52:09;0.30;;;0.30;;
46348;SDS011;32057;47.830;19.046;2023-04-25T09:54:38;0.20;;;0.20;;
46348;SDS011;32057;47.830;19.046;2023-04-25T09:57:11;0.30;;;0.30;;
46348;SDS011;32057;47.830;19.046;2023-04-25T09:59:38;0.22;;;0.22;;
46348;SDS011;32057;47.830;19.046;2023-04-25T10:02:07;0.35;;;0.35;;
46348;SDS011;32057;47.830;19.046;2023-04-25T10:04:34;0.85;;;0.30;;
46348;SDS011;32057;47.830;19.046;2023-04-25T10:07:01;0.20;;;0.20;;
46348;SDS011;32057;47.830;19.046;2023-04-25T10:09:30;0.30;;;0.30;;
46348;SDS011;32057;47.830;19.046;2023-04-25T10:11:58;0.25;;;0.25;;
46348;SDS011;32057;47.830;19.046;2023-04-25T10:14:25;0.20;;;0.20;;
46348;SDS011;32057;47.830;19.046;2023-04-25T10:16:52;0.20;;;0.20;;
46348;SDS011;32057;47.830;19.046;2023-04-25T10:19:19;0.43;;;0.40;;
46348;SDS011;32057;47.830;19.046;2023-04-25T10:21:49;0.32;;;0.32;;
46348;SDS011;32057;47.830;19.046;2023-04-25T10:24:27;0.30;;;0.30;;
46348;SDS011;32057;47.830;19.046;2023-04-25T10:26:53;0.85;;;0.20;;
46348;SDS011;32057;47.830;19.046;2023-04-25T10:29:22;0.30;;;0.30;;
46348;SDS011;32057;47.830;19.046;2023-04-25T10:31:49;0.30;;;0.30;;
46348;SDS011;32057;47.830;19.046;2023-04-25T10:34:15;0.20;;;0.20;;
46348;SDS011;32057;47.830;19.046;2023-04-25T10:36:42;0.30;;;0.30;;
46348;SDS011;32057;47.830;19.046;2023-04-25T10:39:07;0.38;;;0.30;;
46348;SDS011;32057;47.830;19.046;2023-04-25T10:44:20;0.20;;;0.20;;
46348;SDS011;32057;47.830;19.046;2023-04-25T10:46:45;0.40;;;0.40;;
46348;SDS011;32057;47.830;19.046;2023-04-25T10:49:14;0.30;;;0.30;;
46348;SDS011;32057;47.830;19.046;2023-04-25T10:52:11;0.20;;;0.20;;
46348;SDS011;32057;47.830;19.046;2023-04-25T10:55:02;0.30;;;0.30;;
46348;SDS011;32057;47.830;19.046;2023-04-25T10:57:33;0.40;;;0.40;;
46348;SDS011;32057;47.830;19.046;2023-04-25T11:02:48;0.25;;;0.25;;
46348;SDS011;32057;47.830;19.046;2023-04-25T11:05:27;0.20;;;0.20;;
46348;SDS011;32057;47.830;19.046;2023-04-25T11:07:57;0.30;;;0.30;;
46348;SDS011;32057;47.830;19.046;2023-04-25T11:10:27;0.20;;;0.20;;
46348;SDS011;32057;47.830;19.046;2023-04-25T11:12:57;0.20;;;0.20;;
46348;SDS011;32057;47.830;19.046;2023-04-25T11:15:23;0.20;;;0.20;;
46348;SDS011;32057;47.830;19.046;2023-04-25T11:17:52;0.30;;;0.30;;
46348;SDS011;32057;47.830;19.046;2023-04-25T11:20:18;1.85;;;0.77;;
46348;SDS011;32057;47.830;19.046;2023-04-25T11:22:44;0.30;;;0.30;;
46348;SDS011;32057;47.830;19.046;2023-04-25T11:25:11;0.20;;;0.20;;
46348;SDS011;32057;47.830;19.046;2023-04-25T11:27:49;0.20;;;0.20;;
46348;SDS011;32057;47.830;19.046;2023-04-25T11:30:15;0.20;;;0.20;;
46348;SDS011;32057;47.830;19.046;2023-04-25T11:32:41;0.35;;;0.30;;
46348;SDS011;32057;47.830;19.046;2023-04-25T11:35:08;0.22;;;0.22;;
46348;SDS011;32057;47.830;19.046;2023-04-25T11:37:38;0.20;;;0.20;;
46348;SDS011;32057;47.830;19.046;2023-04-25T11:40:05;0.60;;;0.32;;
46348;SDS011;32057;47.830;19.046;2023-04-25T11:42:31;0.30;;;0.30;;
46348;SDS011;32057;47.830;19.046;2023-04-25T11:44:58;0.30;;;0.30;;
46348;SDS011;32057;47.830;19.046;2023-04-25T11:47:28;0.30;;;0.30;;
46348;SDS011;32057;47.830;19.046;2023-04-25T11:49:55;0.30;;;0.30;;
46348;SDS011;32057;47.830;19.046;2023-04-25T11:52:20;0.20;;;0.20;;
46348;SDS011;32057;47.830;19.046;2023-04-25T11:54:45;0.50;;;0.50;;
46348;SDS011;32057;47.830;19.046;2023-04-25T11:57:11;0.20;;;0.20;;
46348;SDS011;32057;47.830;19.046;2023-04-25T11:59:37;1.27;;;0.45;;
46348;SDS011;32057;47.830;19.046;2023-04-25T12:02:02;0.20;;;0.20;;
46348;SDS011;32057;47.830;19.046;2023-04-25T12:04:29;0.20;;;0.20;;
46348;SDS011;32057;47.830;19.046;2023-04-25T12:06:56;0.60;;;0.40;;
46348;SDS011;32057;47.830;19.046;2023-04-25T12:09:27;0.25;;;0.25;;
46348;SDS011;32057;47.830;19.046;2023-04-25T12:11:57;0.30;;;0.30;;
46348;SDS011;32057;47.830;19.046;2023-04-25T12:16:55;0.40;;;0.40;;
46348;SDS011;32057;47.830;19.046;2023-04-25T12:19:23;0.30;;;0.30;;
46348;SDS011;32057;47.830;19.046;2023-04-25T12:21:48;0.50;;;0.50;;
46348;SDS011;32057;47.830;19.046;2023-04-25T12:24:17;2.25;;;0.60;;
46348;SDS011;32057;47.830;19.046;2023-04-25T12:26:49;0.20;;;0.20;;
46348;SDS011;32057;47.830;19.046;2023-04-25T12:29:24;0.38;;;0.38;;
46348;SDS011;32057;47.830;19.046;2023-04-25T12:31:51;0.32;;;0.32;;
46348;SDS011;32057;47.830;19.046;2023-04-25T12:34:18;0.40;;;0.40;;
46348;SDS011;32057;47.830;19.046;2023-04-25T12:36:44;0.45;;;0.45;;
46348;SDS011;32057;47.830;19.046;2023-04-25T12:39:14;0.32;;;0.32;;
46348;SDS011;32057;47.830;19.046;2023-04-25T12:41:44;0.40;;;0.40;;
46348;SDS011;32057;47.830;19.046;2023-04-25T12:44:10;0.30;;;0.30;;
46348;SDS011;32057;47.830;19.046;2023-04-25T12:46:36;0.40;;;0.40;;
46348;SDS011;32057;47.830;19.046;2023-04-25T12:49:01;0.30;;;0.30;;
46348;SDS011;32057;47.830;19.046;2023-04-25T12:51:28;0.50;;;0.50;;
46348;SDS011;32057;47.830;19.046;2023-04-25T12:53:54;0.40;;;0.40;;
46348;SDS011;32057;47.830;19.046;2023-04-25T12:56:19;0.30;;;0.30;;
46348;SDS011;32057;47.830;19.046;2023-04-25T12:58:45;0.40;;;0.40;;
46348;SDS011;32057;47.830;19.046;2023-04-25T13:01:10;0.47;;;0.47;;
46348;SDS011;32057;47.830;19.046;2023-04-25T13:03:37;0.32;;;0.32;;
46348;SDS011;32057;47.830;19.046;2023-04-25T13:06:02;2.70;;;0.40;;
46348;SDS011;32057;47.830;19.046;2023-04-25T13:08:31;0.43;;;0.43;;
46348;SDS011;32057;47.830;19.046;2023-04-25T13:10:56;0.40;;;0.38;;
46348;SDS011;32057;47.830;19.046;2023-04-25T13:13:22;0.43;;;0.43;;
46348;SDS011;32057;47.830;19.046;2023-04-25T13:15:47;0.45;;;0.45;;
46348;SDS011;32057;47.830;19.046;2023-04-25T13:18:13;0.40;;;0.40;;
46348;SDS011;32057;47.830;19.046;2023-04-25T13:20:38;0.50;;;0.50;;
46348;SDS011;32057;47.830;19.046;2023-04-25T13:23:03;0.70;;;0.40;;
46348;SDS011;32057;47.830;19.046;2023-04-25T13:25:29;0.60;;;0.50;;
46348;SDS011;32057;47.830;19.046;2023-04-25T13:27:55;0.40;;;0.40;;
46348;SDS011;32057;47.830;19.046;2023-04-25T13:30:20;0.38;;;0.35;;
46348;SDS011;32057;47.830;19.046;2023-04-25T13:32:45;0.40;;;0.40;;
46348;SDS011;32057;47.830;19.046;2023-04-25T13:35:12;0.63;;;0.60;;
46348;SDS011;32057;47.830;19.046;2023-04-25T13:37:39;0.30;;;0.30;;
46348;SDS011;32057;47.830;19.046;2023-04-25T13:40:09;0.52;;;0.52;;
46348;SDS011;32057;47.830;19.046;2023-04-25T13:42:36;2.25;;;0.40;;
46348;SDS011;32057;47.830;19.046;2023-04-25T13:45:02;0.77;;;0.77;;
46348;SDS011;32057;47.830;19.046;2023-04-25T13:47:28;0.40;;;0.40;;
46348;SDS011;32057;47.830;19.046;2023-04-25T13:49:55;0.60;;;0.60;;
46348;SDS011;32057;47.830;19.046;2023-04-25T13:52:20;0.22;;;0.22;;
46348;SDS011;32057;47.830;19.046;2023-04-25T13:54:46;0.30;;;0.30;;
46348;SDS011;32057;47.830;19.046;2023-04-25T13:57:11;0.30;;;0.30;;
46348;SDS011;32057;47.830;19.046;2023-04-25T13:59:37;0.40;;;0.40;;
46348;SDS011;32057;47.830;19.046;2023-04-25T14:02:03;0.30;;;0.30;;
46348;SDS011;32057;47.830;19.046;2023-04-25T14:04:28;0.80;;;0.45;;
46348;SDS011;32057;47.830;19.046;2023-04-25T14:06:54;0.32;;;0.32;;
46348;SDS011;32057;47.830;19.046;2023-04-25T14:09:20;3.03;;;0.75;;
46348;SDS011;32057;47.830;19.046;2023-04-25T14:11:50;0.50;;;0.50;;
46348;SDS011;32057;47.830;19.046;2023-04-25T14:14:19;0.30;;;0.30;;
46348;SDS011;32057;47.830;19.046;2023-04-25T14:16:45;0.35;;;0.30;;
46348;SDS011;32057;47.830;19.046;2023-04-25T14:19:13;0.35;;;0.32;;
46348;SDS011;32057;47.830;19.046;2023-04-25T14:21:39;0.57;;;0.38;;
46348;SDS011;32057;47.830;19.046;2023-04-25T14:24:04;0.40;;;0.40;;
46348;SDS011;32057;47.830;19.046;2023-04-25T14:26:30;0.32;;;0.32;;
46348;SDS011;32057;47.830;19.046;2023-04-25T14:28:55;0.20;;;0.20;;
46348;SDS011;32057;47.830;19.046;2023-04-25T14:31:21;0.50;;;0.50;;
46348;SDS011;32057;47.830;19.046;2023-04-25T14:33:47;0.32;;;0.32;;
46348;SDS011;32057;47.830;19.046;2023-04-25T14:36:12;0.47;;;0.47;;
46348;SDS011;32057;47.830;19.046;2023-04-25T14:38:41;0.30;;;0.30;;
46348;SDS011;32057;47.830;19.046;2023-04-25T14:41:06;0.75;;;0.55;;
46348;SDS011;32057;47.830;19.046;2023-04-25T14:43:32;0.30;;;0.30;;
46348;SDS011;32057;47.830;19.046;2023-04-25T14:45:57;0.75;;;0.43;;
46348;SDS011;32057;47.830;19.046;2023-04-25T14:48:23;3.13;;;0.35;;